Charleston, SC (29413)

7:13 PM EDT on September 30, 2016 (GMT -0400)
MARITIME | | Change Station

Elev 0 ft 32.80 °N, 79.90 °W | Updated 2 days ago

Clear
Clear
74 °F
Feels Like 74 °F
N
1
Wind Variable Wind from WSW
Gusts mph

Today
High -- | Low -- °F
--% Chance of Precip.
Yesterday
High -- | Low -- °F
Precip. -- in
Pressure 29.97 in
Visibility 10.0 miles
Clouds Clear
Dew Point 67 °F
Humidity 80%
Rainfall in
Snow Depth Not available.
7:13 AM 7:05 PM
Waning Crescent, 0% visible
METAR KJZI 302255Z AUTO 20003KT 10SM CLR 25/20 A2997 RMK AO2
Pressure 29.97 in
Visibility 10.0 miles
Clouds Clear
Dew Point 67 °F
Humidity 80%
Rainfall in
Snow Depth Not available.
7:13 AM 7:05 PM
Waning Crescent, 0% visible
METAR KJZI 302255Z AUTO 20003KT 10SM CLR 25/20 A2997 RMK AO2

10-Day Weather Forecast

Almanac

Astronomy

Sep. 30, 2016 Rise Set
Actual Time
Civil Twilight
Nautical Twilight
Astronomical Twilight
Moon
Length of Visible Light
Length of Day
Tomorrow will be .
, % of the Moon is Illuminated

Today's Extremes

State Highs State Lows

Community

WunderPhotos

Upload Photos

1,942,814 photos uploaded!

WunderBlog® & News

Nearby

Air Quality

  Air Quality AQ Index Pollutant
Not available.

Snow Depth

Station Depth Elevation

Earthquake Activity

City Distance Mag. Time & Date
Minimum magnitude displayed is 2.5.

Coastal Water Temperatures

Place Temperature

Stations

Nearby Weather Stations

Station Location Temp. Windchill Dew Point Humidity Wind Precip. Elev Updated Type
                   

Watches & Warnings

There are currently no watches in effect.